Izumo Princess — SXMB — position and weather

sailwx.info

Track history (hours):
 
Tides and Currents Weather Stations Pressure Air Temp Water Temp Dewpoint Dewpoint Depression Visibility Wind Speed Wind Dir Waves Ship Positions

Izumo Princess

Last reported at 2016-May-29 07:27 UTC. Time now 2016-May-29 19:14 UTC.
Position N 37°46' E 016°39'.

Length 229 m; draft 12.3 m.

Type: Tanker. MMSI: 240611000.

Date/timePositionNaut miles runAvg speedWind from/ knotsBaromVisibWave heightAir tempDewpointWater temp
2016-May-29 07:27N 37°46' E 016°39'1511.9
2016-May-29 06:12N 37°35' E 016°27'812.4
2016-May-29 05:34N 37°29' E 016°20'1512.3
2016-May-29 04:21N 37°17' E 016°08'1012.5
2016-May-29 03:32N 37°09' E 016°00'1312.5
2016-May-29 02:31N 36°60' E 015°50'1212.3
2016-May-29 01:33N 36°51' E 015°40'1412.0
2016-May-29 00:22N 36°40' E 015°29'1011.9
2016-May-28 23:33N 36°32' E 015°21'1111.5
2016-May-28 22:33N 36°27' E 015°08'1312.3
2016-May-28 21:32N 36°24' E 014°53'1111.2
2016-May-28 20:33N 36°21' E 014°40'1212.5
2016-May-28 19:33N 36°23' E 014°25'1212.4
2016-May-28 18:33N 36°25' E 014°10'1212.4
2016-May-28 17:34N 36°29' E 013°55'1212.2
2016-May-28 16:33N 36°32' E 013°40'1212.3
2016-May-28 15:33N 36°36' E 013°26'1212.0
2016-May-28 14:34N 36°39' E 013°11'1211.9
2016-May-28 13:34N 36°43' E 012°58'1212.3
2016-May-28 12:33N 36°47' E 012°43'1312.7
2016-May-28 11:33N 36°52' E 012°28'1312.5
2016-May-28 10:32N 36°57' E 012°13'1212.5
2016-May-28 09:33N 37°01' E 011°59'1312.5
2016-May-28 08:33N 37°07' E 011°45'3712.4
2016-May-28 05:32N 37°25' E 011°04'5112.7
2016-May-28 01:28N 37°35' E 010°00'1212.8
2016-May-28 00:32N 37°35' E 009°45'2512.5
2016-May-27 22:33N 37°36' E 009°14'1412.3
2016-May-27 21:27N 37°37' E 008°57'188 4.0
2016-May-25 22:33N 36°48' E 005°09'1 1.0
2016-May-25 21:33N 36°48' E 005°10'1 1.0
2016-May-25 20:21N 36°47' E 005°11'1 0.4
2016-May-25 18:33N 36°47' E 005°12'2 1.9
2016-May-25 17:33N 36°47' E 005°10'1 0.8
2016-May-25 16:33N 36°47' E 005°11'1 0.8
2016-May-25 15:33N 36°47' E 005°12'1 0.7
2016-May-25 14:33N 36°47' E 005°12'1 0.6
2016-May-25 13:31N 36°48' E 005°12'78 8.6
2016-May-25 04:27N 37°35' E 006°30'1011.0
2016-May-25 03:33N 37°36' E 006°42'1311.2
2016-May-25 02:25N 37°36' E 006°59'1411.5
2016-May-25 01:14N 37°37' E 007°16'1911.3
2016-May-24 23:32N 37°38' E 007°40'2311.3
2016-May-24 21:27N 37°39' E 008°10'1111.5
2016-May-24 20:32N 37°39' E 008°23'8311.6
2016-May-24 13:25N 37°39' E 010°07'910.5
2016-May-24 12:33N 37°38' E 010°19'2010.2
2016-May-24 10:33N 37°33' E 010°44'1010.2
2016-May-24 09:33N 37°31' E 010°56'13 9.9
2016-May-24 08:14N 37°26' E 011°11'710.2
2016-May-24 07:31N 37°24' E 011°20'5210.4
2016-May-24 02:33N 36°58' E 012°16'1210.4
2016-May-24 01:26N 36°53' E 012°30'910.3
2016-May-24 00:32N 36°49' E 012°40'1010.2
2016-May-23 23:33N 36°45' E 012°51'1010.1
2016-May-23 22:33N 36°41' E 013°03'1010.3
2016-May-23 21:33N 36°37' E 013°14'1010.3
2016-May-23 20:33N 36°32' E 013°26'1110.6
2016-May-23 19:33N 36°28' E 013°38'1110.8
2016-May-23 18:33N 36°23' E 013°50'1111.0
2016-May-23 17:33N 36°19' E 014°02'1110.9
2016-May-23 16:33N 36°14' E 014°15'1110.9
2016-May-23 15:33N 36°09' E 014°26'1111.0
2016-May-23 14:33N 36°00' E 014°35'8 7.7
2016-May-23 13:33N 35°54' E 014°42'1010.1
2016-May-23 12:33N 35°48' E 014°51'0 0.2
2016-May-23 11:32N 35°48' E 014°52'0 0.0
2016-May-23 10:32N 35°48' E 014°52'0 0.1
2016-May-23 09:32N 35°48' E 014°52'0 0.1
2016-May-23 08:20N 35°48' E 014°52'0 0.0
2016-May-23 07:32N 35°48' E 014°52'0 0.1
2016-May-23 06:32N 35°48' E 014°52'0 0.0
2016-May-23 05:32N 35°48' E 014°52'0 0.0
2016-May-23 04:32N 35°48' E 014°52'0 0.0
2016-May-23 03:32N 35°48' E 014°52'0 0.0
2016-May-23 02:32N 35°48' E 014°52'0 0.0
2016-May-23 01:32N 35°48' E 014°52'0 0.0
2016-May-23 00:29N 35°48' E 014°52'0 0.0
2016-May-22 23:32N 35°48' E 014°52'0 0.0
2016-May-22 22:32N 35°48' E 014°52'0 0.0
2016-May-22 21:32N 35°48' E 014°52'0 0.1
2016-May-22 20:32N 35°48' E 014°52'0 0.1
2016-May-22 19:32N 35°48' E 014°52'0 0.0
2016-May-22 18:29N 35°48' E 014°52'0 0.1
2016-May-22 17:32N 35°48' E 014°52'0 0.0
2016-May-22 16:29N 35°48' E 014°52'0 0.0
2016-May-22 15:32N 35°48' E 014°52'0 0.0
2016-May-22 14:29N 35°48' E 014°52'0 0.0
2016-May-22 13:32N 35°48' E 014°52'0 0.0
2016-May-22 12:32N 35°48' E 014°52'0 0.0
2016-May-22 11:32N 35°48' E 014°52'0 0.0
2016-May-22 10:32N 35°48' E 014°52'0 0.0
2016-May-22 09:32N 35°48' E 014°52'0 0.0
2016-May-22 08:29N 35°48' E 014°52'0 0.0
2016-May-22 07:32N 35°48' E 014°52'0 0.0
2016-May-22 06:32N 35°48' E 014°52'0 0.0
2016-May-22 05:32N 35°48' E 014°52'0 0.0
2016-May-22 04:29N 35°48' E 014°52'0 0.0
2016-May-22 03:32N 35°48' E 014°52'0 0.0
2016-May-22 02:32N 35°48' E 014°52'0 0.0
2016-May-22 01:32N 35°48' E 014°52'0 0.0
2016-May-22 00:32N 35°48' E 014°52'0 0.0
2016-May-21 23:32N 35°48' E 014°52'0 0.0
2016-May-21 22:32N 35°48' E 014°52'0 0.0
2016-May-21 21:32N 35°48' E 014°52'0 0.0
2016-May-21 20:32N 35°48' E 014°52'0 0.0
2016-May-21 19:32N 35°48' E 014°52'0 0.0
2016-May-21 18:32N 35°48' E 014°52'0 0.1
2016-May-21 17:23N 35°48' E 014°52'0 0.0
2016-May-21 16:32N 35°48' E 014°52'0 0.0
2016-May-21 15:29N 35°48' E 014°52'0 0.0
2016-May-21 14:32N 35°48' E 014°52'0 0.0
2016-May-21 13:32N 35°48' E 014°52'0 0.0
2016-May-21 12:32N 35°48' E 014°52'0 0.0
2016-May-21 11:32N 35°48' E 014°52'0 0.0
2016-May-21 10:32N 35°48' E 014°52'0 0.0
2016-May-21 09:32N 35°48' E 014°52'0 0.0
2016-May-21 08:32N 35°48' E 014°52'0 0.0
2016-May-21 07:23N 35°48' E 014°52'0 0.1
2016-May-21 06:29N 35°48' E 014°52'0 0.0
2016-May-20 20:32N 35°48' E 014°52'0 0.0
2016-May-20 19:29N 35°48' E 014°52'0 0.0
2016-May-20 18:23N 35°48' E 014°52'0 0.0
2016-May-20 10:32N 35°48' E 014°52'0 0.1
2016-May-20 09:32N 35°48' E 014°52'0 0.0
2016-May-20 08:32N 35°48' E 014°52'0 0.0
2016-May-20 07:32N 35°48' E 014°52'0 0.1
2016-May-20 06:26N 35°48' E 014°51'0 0.0
2016-May-20 05:32N 35°48' E 014°51'0 0.0
2016-May-20 04:32N 35°48' E 014°51'0 0.0
2016-May-20 03:32N 35°48' E 014°51'0 0.1
2016-May-20 02:32N 35°48' E 014°51'0 0.1
2016-May-20 01:32N 35°48' E 014°51'0 0.1
2016-May-20 00:32N 35°48' E 014°51'0 0.0
2016-May-19 23:32N 35°48' E 014°51'0 0.0
2016-May-19 22:32N 35°48' E 014°51'0 0.0
2016-May-19 21:32N 35°48' E 014°51'0 0.1
2016-May-19 20:29N 35°48' E 014°51'0 0.0
2016-May-19 19:32N 35°48' E 014°51'0 0.1
2016-May-19 18:32N 35°48' E 014°51'0 0.1
2016-May-19 17:32N 35°48' E 014°51'0 0.0
2016-May-19 16:26N 35°48' E 014°51'0 0.0
2016-May-19 15:26N 35°48' E 014°51'0 0.0
2016-May-19 13:32N 35°48' E 014°51'0 0.1
2016-May-19 12:23N 35°48' E 014°51'0 0.0
2016-May-19 10:23N 35°48' E 014°51'0 0.0
2016-May-19 08:26N 35°48' E 014°51'  
Track history (hours):
 
Tides and Currents Weather Stations Pressure Air Temp Water Temp Dewpoint Dewpoint Depression Visibility Wind Speed Wind Dir Waves Ship Positions

Izumo Princess

Last reported at 2016-May-29 07:27 UTC. Time now 2016-May-29 19:14 UTC.
Position N 37°46' E 016°39'.

Length 229 m; draft 12.3 m.

Type: Tanker. MMSI: 240611000.

Date/timePositionNaut miles runAvg speedWind from/ knotsBaromVisibWave heightAir tempDewpointWater temp
2016-May-29 07:27N 37°46' E 016°39'1511.9
2016-May-29 06:12N 37°35' E 016°27'812.4
2016-May-29 05:34N 37°29' E 016°20'1512.3
2016-May-29 04:21N 37°17' E 016°08'1012.5
2016-May-29 03:32N 37°09' E 016°00'1312.5
2016-May-29 02:31N 36°60' E 015°50'1212.3
2016-May-29 01:33N 36°51' E 015°40'1412.0
2016-May-29 00:22N 36°40' E 015°29'1011.9
2016-May-28 23:33N 36°32' E 015°21'1111.5
2016-May-28 22:33N 36°27' E 015°08'1312.3
2016-May-28 21:32N 36°24' E 014°53'1111.2
2016-May-28 20:33N 36°21' E 014°40'1212.5
2016-May-28 19:33N 36°23' E 014°25'1212.4
2016-May-28 18:33N 36°25' E 014°10'1212.4
2016-May-28 17:34N 36°29' E 013°55'1212.2
2016-May-28 16:33N 36°32' E 013°40'1212.3
2016-May-28 15:33N 36°36' E 013°26'1212.0
2016-May-28 14:34N 36°39' E 013°11'1211.9
2016-May-28 13:34N 36°43' E 012°58'1212.3
2016-May-28 12:33N 36°47' E 012°43'1312.7
2016-May-28 11:33N 36°52' E 012°28'1312.5
2016-May-28 10:32N 36°57' E 012°13'1212.5
2016-May-28 09:33N 37°01' E 011°59'1312.5
2016-May-28 08:33N 37°07' E 011°45'3712.4
2016-May-28 05:32N 37°25' E 011°04'5112.7
2016-May-28 01:28N 37°35' E 010°00'1212.8
2016-May-28 00:32N 37°35' E 009°45'2512.5
2016-May-27 22:33N 37°36' E 009°14'1412.3
2016-May-27 21:27N 37°37' E 008°57'188 4.0
2016-May-25 22:33N 36°48' E 005°09'1 1.0
2016-May-25 21:33N 36°48' E 005°10'1 1.0
2016-May-25 20:21N 36°47' E 005°11'1 0.4
2016-May-25 18:33N 36°47' E 005°12'2 1.9
2016-May-25 17:33N 36°47' E 005°10'1 0.8
2016-May-25 16:33N 36°47' E 005°11'1 0.8
2016-May-25 15:33N 36°47' E 005°12'1 0.7
2016-May-25 14:33N 36°47' E 005°12'1 0.6
2016-May-25 13:31N 36°48' E 005°12'78 8.6
2016-May-25 04:27N 37°35' E 006°30'1011.0
2016-May-25 03:33N 37°36' E 006°42'1311.2
2016-May-25 02:25N 37°36' E 006°59'1411.5
2016-May-25 01:14N 37°37' E 007°16'1911.3
2016-May-24 23:32N 37°38' E 007°40'2311.3
2016-May-24 21:27N 37°39' E 008°10'1111.5
2016-May-24 20:32N 37°39' E 008°23'8311.6
2016-May-24 13:25N 37°39' E 010°07'910.5
2016-May-24 12:33N 37°38' E 010°19'2010.2
2016-May-24 10:33N 37°33' E 010°44'1010.2
2016-May-24 09:33N 37°31' E 010°56'13 9.9
2016-May-24 08:14N 37°26' E 011°11'710.2
2016-May-24 07:31N 37°24' E 011°20'5210.4
2016-May-24 02:33N 36°58' E 012°16'1210.4
2016-May-24 01:26N 36°53' E 012°30'910.3
2016-May-24 00:32N 36°49' E 012°40'1010.2
2016-May-23 23:33N 36°45' E 012°51'1010.1
2016-May-23 22:33N 36°41' E 013°03'1010.3
2016-May-23 21:33N 36°37' E 013°14'1010.3
2016-May-23 20:33N 36°32' E 013°26'1110.6
2016-May-23 19:33N 36°28' E 013°38'1110.8
2016-May-23 18:33N 36°23' E 013°50'1111.0
2016-May-23 17:33N 36°19' E 014°02'1110.9
2016-May-23 16:33N 36°14' E 014°15'1110.9
2016-May-23 15:33N 36°09' E 014°26'1111.0
2016-May-23 14:33N 36°00' E 014°35'8 7.7
2016-May-23 13:33N 35°54' E 014°42'1010.1
2016-May-23 12:33N 35°48' E 014°51'0 0.2
2016-May-23 11:32N 35°48' E 014°52'0 0.0
2016-May-23 10:32N 35°48' E 014°52'0 0.1
2016-May-23 09:32N 35°48' E 014°52'0 0.1
2016-May-23 08:20N 35°48' E 014°52'0 0.0
2016-May-23 07:32N 35°48' E 014°52'0 0.1
2016-May-23 06:32N 35°48' E 014°52'0 0.0
2016-May-23 05:32N 35°48' E 014°52'0 0.0
2016-May-23 04:32N 35°48' E 014°52'0 0.0
2016-May-23 03:32N 35°48' E 014°52'0 0.0
2016-May-23 02:32N 35°48' E 014°52'0 0.0
2016-May-23 01:32N 35°48' E 014°52'0 0.0
2016-May-23 00:29N 35°48' E 014°52'0 0.0
2016-May-22 23:32N 35°48' E 014°52'0 0.0
2016-May-22 22:32N 35°48' E 014°52'0 0.0
2016-May-22 21:32N 35°48' E 014°52'0 0.1
2016-May-22 20:32N 35°48' E 014°52'0 0.1
2016-May-22 19:32N 35°48' E 014°52'0 0.0
2016-May-22 18:29N 35°48' E 014°52'0 0.1
2016-May-22 17:32N 35°48' E 014°52'0 0.0
2016-May-22 16:29N 35°48' E 014°52'0 0.0
2016-May-22 15:32N 35°48' E 014°52'0 0.0
2016-May-22 14:29N 35°48' E 014°52'0 0.0
2016-May-22 13:32N 35°48' E 014°52'0 0.0
2016-May-22 12:32N 35°48' E 014°52'0 0.0
2016-May-22 11:32N 35°48' E 014°52'0 0.0
2016-May-22 10:32N 35°48' E 014°52'0 0.0
2016-May-22 09:32N 35°48' E 014°52'0 0.0
2016-May-22 08:29N 35°48' E 014°52'0 0.0
2016-May-22 07:32N 35°48' E 014°52'0 0.0
2016-May-22 06:32N 35°48' E 014°52'0 0.0
2016-May-22 05:32N 35°48' E 014°52'0 0.0
2016-May-22 04:29N 35°48' E 014°52'0 0.0
2016-May-22 03:32N 35°48' E 014°52'0 0.0
2016-May-22 02:32N 35°48' E 014°52'0 0.0
2016-May-22 01:32N 35°48' E 014°52'0 0.0
2016-May-22 00:32N 35°48' E 014°52'0 0.0
2016-May-21 23:32N 35°48' E 014°52'0 0.0
2016-May-21 22:32N 35°48' E 014°52'0 0.0
2016-May-21 21:32N 35°48' E 014°52'0 0.0
2016-May-21 20:32N 35°48' E 014°52'0 0.0
2016-May-21 19:32N 35°48' E 014°52'0 0.0
2016-May-21 18:32N 35°48' E 014°52'0 0.1
2016-May-21 17:23N 35°48' E 014°52'0 0.0
2016-May-21 16:32N 35°48' E 014°52'0 0.0
2016-May-21 15:29N 35°48' E 014°52'0 0.0
2016-May-21 14:32N 35°48' E 014°52'0 0.0
2016-May-21 13:32N 35°48' E 014°52'0 0.0
2016-May-21 12:32N 35°48' E 014°52'0 0.0
2016-May-21 11:32N 35°48' E 014°52'0 0.0
2016-May-21 10:32N 35°48' E 014°52'0 0.0
2016-May-21 09:32N 35°48' E 014°52'0 0.0
2016-May-21 08:32N 35°48' E 014°52'0 0.0
2016-May-21 07:23N 35°48' E 014°52'0 0.1
2016-May-21 06:29N 35°48' E 014°52'0 0.0
2016-May-20 20:32N 35°48' E 014°52'0 0.0
2016-May-20 19:29N 35°48' E 014°52'0 0.0
2016-May-20 18:23N 35°48' E 014°52'0 0.0
2016-May-20 10:32N 35°48' E 014°52'0 0.1
2016-May-20 09:32N 35°48' E 014°52'0 0.0
2016-May-20 08:32N 35°48' E 014°52'0 0.0
2016-May-20 07:32N 35°48' E 014°52'0 0.1
2016-May-20 06:26N 35°48' E 014°51'0 0.0
2016-May-20 05:32N 35°48' E 014°51'0 0.0
2016-May-20 04:32N 35°48' E 014°51'0 0.0
2016-May-20 03:32N 35°48' E 014°51'0 0.1
2016-May-20 02:32N 35°48' E 014°51'0 0.1
2016-May-20 01:32N 35°48' E 014°51'0 0.1
2016-May-20 00:32N 35°48' E 014°51'0 0.0
2016-May-19 23:32N 35°48' E 014°51'0 0.0
2016-May-19 22:32N 35°48' E 014°51'0 0.0
2016-May-19 21:32N 35°48' E 014°51'0 0.1
2016-May-19 20:29N 35°48' E 014°51'0 0.0
2016-May-19 19:32N 35°48' E 014°51'0 0.1
2016-May-19 18:32N 35°48' E 014°51'0 0.1
2016-May-19 17:32N 35°48' E 014°51'0 0.0
2016-May-19 16:26N 35°48' E 014°51'0 0.0
2016-May-19 15:26N 35°48' E 014°51'0 0.0
2016-May-19 13:32N 35°48' E 014°51'0 0.1
2016-May-19 12:23N 35°48' E 014°51'0 0.0
2016-May-19 10:23N 35°48' E 014°51'0 0.0
2016-May-19 08:26N 35°48' E 014°51'  

Dump ship's entire track history